EW2295 Weather Reports


time (UTC)temp
C
wind
direction
speed
KPH
gust
KPH
rain 1hr
cm
rain 24hr
cm
rain mn
cm
humidity
%
barometer
mb
20200217014055 7 242 17.7 43.5 0.00 1.17 0.03 82 1009.0
20200217013609 7 235 20.9 43.5 0.00 1.17 0.03 82 1008.8
20200217013109 7 253 19.3 32.2 0.00 1.17 0.03 83 1008.6
20200217012553 7 253 17.7 33.8 0.00 1.17 0.03 83 1008.7
20200217012047 7 226 19.3 35.4 0.00 1.17 0.03 83 1008.5
20200217011641 7 235 19.3 51.5 0.00 1.17 0.03 84 1008.2
20200217011051 7 243 24.1 51.5 0.00 1.17 0.03 84 1008.2
20200217010546 7 221 20.9 41.8 0.00 1.17 0.03 85 1007.9
20200217010053 7 234 25.7 41.8 0.00 1.17 0.03 85 1008.0
20200217005546 7 215 24.1 40.2 0.00 1.17 0.03 86 1007.9
20200217005058 7 238 20.9 40.2 0.00 1.17 0.03 87 1007.8
20200217004601 7 236 17.7 33.8 0.00 1.17 0.03 88 1007.9
20200217004047 7 246 16.1 33.8 0.00 1.17 0.03 89 1007.6
20200217003546 7 238 19.3 30.6 0.00 1.17 0.03 90 1007.8
20200217003142 7 228 12.9 37.0 0.00 1.17 0.03 90 1007.7
20200217002549 7 226 20.9 37.0 0.00 1.17 0.03 90 1007.7
20200217002047 7 237 11.3 30.6 0.00 1.17 0.03 91 1007.4
20200217001606 7 240 16.1 27.4 0.00 1.17 0.03 91 1007.3
20200217001045 7 236 12.9 32.2 0.03 1.17 0.03 91 1007.5
20200217000547 7 216 14.5 32.2 0.03 1.17 0.03 91 1007.1
20200217000133 7 234 17.7 33.8 0.03 1.17 0.03 91 1007.2
20200216235608 7 224 16.1 33.8 0.05 1.17 0.03 92 1006.8
20200216235051 7 213 11.3 27.4 0.08 1.17 0.03 92 1006.1
20200216234601 7 206 12.9 33.8 0.08 1.17 0.03 92 1006.4
20200216234046 7 211 19.3 41.8 0.10 1.17 0.03 92 1006.5
20200216233545 7 221 16.1 41.8 0.13 1.17 0.03 92 1006.7
20200216233130 7 265 17.7 41.8 0.13 1.17 0.03 92 1006.7
20200216232550 7 232 19.3 35.4 0.15 1.17 0.03 92 1006.9
20200216232047 7 234 14.5 35.4 0.15 1.17 0.03 93 1006.8
20200216231615 7 231 14.5 38.6 0.15 1.14 0.00 92 1007.1
20200216231104 7 248 16.1 38.6 0.15 1.12 0.00 92 1006.8
20200216230614 7 184 17.7 33.8 0.18 1.12 0.00 92 1006.7
20200216230210 7 214 16.1 33.8 0.18 1.12 0.00 93 1006.9
20200216225549 7 217 14.5 32.2 0.18 1.12 1.12 93 1006.7
20200216225046 7 217 17.7 35.4 0.18 1.09 1.09 92 1006.2
20200216224653 7 217 14.5 37.0 0.18 1.07 1.07 92 1006.2
20200216224055 7 211 16.1 37.0 0.18 1.04 1.04 92 1006.3
20200216223546 7 219 14.5 30.6 0.18 1.02 1.02 92 1006.1
20200216223118 7 252 17.7 30.6 0.18 1.02 1.02 92 1006.1
20200216222613 7 228 14.5 40.2 0.18 1.02 1.02 92 1005.8
20200216222053 7 259 16.1 45.1 0.18 0.99 0.99 92 1006.1
20200216221632 7 279 20.9 45.1 0.18 0.99 0.99 93 1006.2
20200216221048 7 229 14.5 35.4 0.18 0.97 0.97 93 1006.2
20200216220549 7 237 16.1 27.4 0.18 0.94 0.94 93 1006.1
20200216220233 7 200 12.9 29.0 0.18 0.94 0.94 93 1006.0
20200216215550 7 213 9.7 35.4 0.18 0.91 0.91 93 1006.0
20200216215103 7 271 17.7 35.4 0.18 0.89 0.89 93 1006.1
20200216214656 7 242 9.7 30.6 0.18 0.89 0.89 93 1006.0
20200216214048 7 233 16.1 33.8 0.18 0.86 0.86 93 1005.7
20200216213551 7 223 17.7 33.8 0.20 0.84 0.84 93 1005.5
20200216213140 7 219 11.3 37.0 0.20 0.84 0.84 93 1005.6
20200216212556 7 239 16.1 37.0 0.20 0.81 0.81 93 1005.5
20200216212047 7 211 11.3 35.4 0.25 0.81 0.81 93 1005.4
20200216211756 7 204 17.7 35.4 0.25 0.79 0.79 93 1005.5
20200216211047 8 242 11.3 29.0 0.28 0.76 0.76 93 1005.3
20200216210553 8 221 11.3 29.0 0.25 0.74 0.74 93 1005.5
20200216210126 8 202 12.9 27.4 0.28 0.74 0.74 93 1005.2
20200216205551 8 232 12.9 29.0 0.25 0.74 0.74 93 1005.4
20200216205046 8 200 9.7 29.0 0.25 0.71 0.71 92 1005.2
20200216204620 8 216 11.3 29.0 0.25 0.69 0.69 92 1005.2
20200216204047 8 236 9.7 24.1 0.25 0.66 0.66 92 1005.1
20200216203547 8 0 6.4 20.9 0.23 0.64 0.64 92 1005.2
20200216203052 8 217 8.0 22.5 0.23 0.61 0.61 92 1005.0
20200216202547 8 269 11.3 27.4 0.23 0.58 0.58 91 1004.8
20200216202046 8 248 14.5 33.8 0.36 0.56 0.56 91 1004.7
20200216201638 8 220 19.3 33.8 0.33 0.51 0.51 91 1004.4
20200216201107 8 269 11.3 22.5 0.30 0.48 0.48 91 1004.2
20200216200605 8 294 11.3 30.6 0.30 0.48 0.48 90 1003.9
20200216200148 8 275 11.3 30.6 0.28 0.46 0.46 90 1003.9
20200216195545 8 247 14.5 33.8 0.28 0.46 0.46 89 1003.5
20200216195045 8 244 14.5 33.8 0.28 0.46 0.46 88 1003.5
20200216194624 8 273 14.5 45.1 0.25 0.43 0.43 88 1003.6
20200216194046 9 271 16.1 45.1 0.23 0.41 0.41 86 1003.4
20200216193545 10 237 19.3 46.7 0.20 0.38 0.38 83 1002.9
20200216193124 11 271 17.7 57.9 0.18 0.36 0.36 78 1002.6
20200216192547 13 279 22.5 57.9 0.15 0.33 0.33 68 1002.1
20200216192046 16 235 27.4 56.3 0.00 0.18 0.18 57 1001.8
20200216191632 17 163 20.9 56.3 0.00 0.18 0.18 55 998.8
20200216191047 17 246 22.5 45.1 0.00 0.18 0.18 55 998.8
20200216190548 17 176 11.3 54.7 0.00 0.18 0.18 55 999.1
20200216190102 17 199 25.7 54.7 0.00 0.18 0.18 54 998.8
20200216185544 17 212 24.1 49.9 0.00 0.18 0.18 54 998.5
20200216185047 17 204 24.1 56.3 0.00 0.18 0.18 54 998.8
20200216184651 17 239 22.5 56.3 0.00 0.18 0.18 54 998.7
20200216184108 17 274 17.7 53.1 0.00 0.18 0.18 54 998.7
20200216183549 17 215 22.5 56.3 0.00 0.18 0.18 54 998.6
20200216183120 17 192 29.0 56.3 0.00 0.18 0.18 54 998.7
20200216182546 17 164 20.9 62.8 0.00 0.18 0.18 54 998.2
20200216182044 17 226 30.6 62.8 0.00 0.18 0.18 54 998.0
20200216181629 17 223 24.1 51.5 0.00 0.18 0.18 54 998.4
20200216181049 17 208 16.1 62.8 0.00 0.18 0.18 53 998.2
20200216180554 17 204 33.8 62.8 0.00 0.18 0.18 53 998.2
20200216180120 17 240 24.1 67.6 0.00 0.18 0.18 53 998.5
20200216175547 17 227 19.3 67.6 0.00 0.18 0.18 54 998.4
20200216175047 17 214 22.5 74.0 0.00 0.18 0.18 54 998.3
20200216174651 17 214 29.0 74.0 0.00 0.18 0.18 54 998.4
20200216174047 17 253 27.4 51.5 0.00 0.18 0.18 54 998.5
20200216173544 17 275 27.4 51.5 0.00 0.18 0.18 54 998.6
20200216173124 17 167 25.7 53.1 0.00 0.18 0.18 54 999.0
20200216172604 17 274 20.9 53.1 0.00 0.18 0.18 54 998.9
20200216172059 17 241 22.5 48.3 0.00 0.18 0.18 54 999.3
20200216171601 17 200 24.1 54.7 0.00 0.18 0.18 53 999.5
20200216171047 17 225 25.7 54.7 0.00 0.18 0.18 53 999.3
20200216170552 17 250 24.1 49.9 0.00 0.18 0.18 53 999.7
20200216170150 17 232 29.0 78.9 0.00 0.18 0.18 53 999.6
20200216165546 17 222 37.0 78.9 0.00 0.18 0.18 53 999.5
20200216165045 17 240 24.1 49.9 0.00 0.18 0.18 53 999.5
20200216164632 17 218 27.4 67.6 0.00 0.18 0.18 53 999.6
20200216164047 17 226 27.4 67.6 0.00 0.18 0.18 53 999.6
20200216163547 17 243 22.5 53.1 0.00 0.18 0.18 53 999.8
20200216163135 17 237 19.3 53.1 0.00 0.18 0.18 53 999.7
20200216162546 17 196 22.5 53.1 0.00 0.18 0.18 53 999.8
20200216162047 17 229 24.1 53.1 0.00 0.18 0.18 54 1000.1
20200216161550 17 242 29.0 61.2 0.00 0.18 0.18 55 999.8
20200216161112 17 208 30.6 61.2 0.00 0.18 0.18 55 999.8
20200216160549 17 245 20.9 46.7 0.00 0.18 0.18 57 999.8
20200216160102 17 69 14.5 46.7 0.00 0.18 0.18 58 1000.1
20200216155547 17 207 19.3 46.7 0.00 0.18 0.18 59 1000.0
20200216155107 17 225 16.1 43.5 0.00 0.18 0.18 59 1000.0
20200216154721 17 208 16.1 43.5 0.00 0.18 0.18 60 1000.0
20200216154046 17 260 16.1 40.2 0.00 0.18 0.18 60 999.7
20200216153544 17 260 17.7 40.2 0.00 0.18 0.18 61 1000.1
20200216153332 17 232 17.7 43.5 0.00 0.18 0.18 61 1000.1
20200216152546 17 247 17.7 43.5 0.00 0.18 0.18 62 1000.2
20200216152045 17 222 16.1 37.0 0.00 0.18 0.18 62 1000.1
20200216151729 17 213 12.9 46.7 0.00 0.18 0.18 62 1000.1
20200216151045 16 251 22.5 48.3 0.00 0.18 0.18 62 1000.3
20200216150551 16 221 17.7 48.3 0.00 0.18 0.18 62 1000.2
20200216150106 16 218 20.9 46.7 0.00 0.18 0.18 62 1000.4
20200216145543 16 270 16.1 43.5 0.00 0.18 0.18 62 1000.2
20200216145047 16 210 16.1 43.5 0.00 0.18 0.18 62 1000.1
20200216144602 16 167 17.7 33.8 0.00 0.18 0.18 62 1000.2
20200216144043 16 267 17.7 40.2 0.00 0.18 0.18 62 1000.2
20200216143600 16 212 17.7 40.2 0.00 0.18 0.18 62 1000.5
20200216143124 16 247 16.1 33.8 0.00 0.18 0.18 62 1000.8
20200216142606 16 209 12.9 43.5 0.00 0.18 0.18 62 1000.9
20200216142052 16 255 19.3 43.5 0.00 0.18 0.18 61 1000.9
20200216141623 16 211 17.7 37.0 0.00 0.18 0.18 61 1001.0
20200216141121 16 199 16.1 41.8 0.00 0.18 0.18 61 1001.0
20200216140552 16 226 17.7 41.8 0.00 0.18 0.18 62 1001.1
20200216140153 16 207 11.3 33.8 0.00 0.18 0.18 61 1001.1
20200216135551 15 201 20.9 49.9 0.00 0.18 0.18 61 1001.1
20200216135104 15 175 22.5 51.5 0.00 0.18 0.18 61 1001.0
20200216134629 15 172 22.5 51.5 0.00 0.18 0.18 61 1001.1
20200216134047 15 267 20.9 41.8 0.00 0.18 0.18 61 1001.1
20200216133556 15 205 16.1 51.5 0.00 0.18 0.18 61 1001.1
20200216133108 15 174 17.7 67.6 0.00 0.18 0.18 60 1001.3
20200216132552 16 244 27.4 67.6 0.00 0.18 0.18 60 1001.4
20200216132043 16 225 29.0 57.9 0.00 0.18 0.18 60 1001.2
20200216131629 16 254 24.1 57.9 0.00 0.18 0.18 60 1001.3
20200216131116 16 219 22.5 40.2 0.00 0.18 0.18 60 1001.2
20200216130551 15 225 16.1 43.5 0.00 0.18 0.18 60 1001.2
20200216130322 15 248 19.3 54.7 0.00 0.18 0.18 60 1001.0
20200216125553 15 108 17.7 54.7 0.00 0.18 0.18 61 1001.2
20200216125046 15 237 14.5 43.5 0.00 0.18 0.18 61 1001.2
20200216124600 15 203 16.1 41.8 0.00 0.18 0.18 62 1001.3
20200216124045 15 268 19.3 41.8 0.00 0.18 0.18 62 1001.3
20200216123603 15 262 12.9 40.2 0.00 0.18 0.18 63 1001.6
20200216123111 15 241 11.3 49.9 0.00 0.18 0.18 64 1001.7
20200216122545 15 250 17.7 56.3 0.00 0.18 0.18 64 1002.1
20200216122056 15 259 19.3 56.3 0.00 0.18 0.18 64 1002.0
20200216121702 15 199 19.3 43.5 0.00 0.18 0.18 64 1002.2
20200216121049 15 229 16.1 56.3 0.00 0.18 0.18 64 1002.7
20200216120546 15 223 12.9 56.3 0.00 0.18 0.18 64 1002.5
20200216120054 15 215 17.7 45.1 0.00 0.18 0.18 64 1002.8
20200216115545 15 244 16.1 46.7 0.00 0.18 0.18 63 1003.0
20200216115045 15 180 25.7 54.7 0.00 0.18 0.18 63 1003.0
20200216114606 15 207 22.5 54.7 0.00 0.18 0.18 63 1002.9
20200216114043 15 200 19.3 41.8 0.00 0.18 0.18 63 1002.8
20200216113551 15 221 20.9 43.5 0.00 0.18 0.18 63 1003.1
20200216113121 15 217 17.7 53.1 0.00 0.18 0.18 63 1002.9
20200216112549 15 211 22.5 53.1 0.00 0.18 0.18 63 1003.1
20200216112059 15 254 22.5 53.1 0.00 0.18 0.18 63 1002.9
20200216111646 15 216 24.1 51.5 0.00 0.18 0.18 63 1003.0
20200216111047 15 238 20.9 43.5 0.00 0.18 0.18 64 1003.4
20200216110546 15 205 20.9 53.1 0.00 0.18 0.18 65 1003.4
20200216110127 15 254 24.1 53.1 0.00 0.18 0.18 65 1003.5
20200216105546 14 207 19.3 51.5 0.00 0.18 0.18 66 1003.4
20200216105046 14 233 17.7 40.2 0.00 0.18 0.18 67 1003.3
20200216104722 14 242 14.5 35.4 0.00 0.18 0.18 68 1003.6
20200216104057 13 127 16.1 46.7 0.00 0.18 0.18 70 1003.7
20200216103552 13 207 17.7 46.7 0.00 0.18 0.18 70 1003.6
20200216103139 13 202 20.9 45.1 0.00 0.18 0.18 71 1003.6
20200216102544 13 146 11.3 40.2 0.00 0.18 0.18 72 1003.6
20200216102048 13 216 8.0 40.2 0.00 0.18 0.18 73 1003.8
20200216101548 13 230 12.9 35.4 0.00 0.18 0.18 73 1003.9
20200216101043 13 199 8.0 43.5 0.00 0.18 0.18 73 1003.7
20200216100546 13 207 14.5 45.1 0.00 0.18 0.18 73 1003.8
20200216100103 13 211 16.1 45.1 0.00 0.18 0.18 74 1003.9
20200216095552 13 266 17.7 45.1 0.00 0.18 0.18 75 1003.8
20200216095135 13 242 14.5 45.1 0.00 0.18 0.18 76 1003.6
20200216094636 12 205 16.1 43.5 0.00 0.18 0.18 77 1003.8
20200216094047 12 206 19.3 43.5 0.00 0.18 0.18 77 1003.9
20200216093546 12 202 16.1 35.4 0.00 0.18 0.18 77 1003.9
20200216093134 12 196 11.3 38.6 0.00 0.18 0.18 78 1004.0
20200216092549 12 159 17.7 40.2 0.00 0.18 0.18 79 1004.0
20200216092045 12 209 19.3 41.8 0.00 0.18 0.18 80 1004.2
20200216091548 12 185 14.5 51.5 0.00 0.18 0.18 81 1004.2
20200216091051 12 204 22.5 51.5 0.00 0.18 0.18 81 1004.3
20200216090550 12 184 16.1 38.6 0.00 0.18 0.18 82 1004.3
20200216090119 12 205 17.7 35.4 0.00 0.18 0.18 82 1004.3
20200216085544 12 165 17.7 38.6 0.00 0.15 0.15 82 1004.2
20200216085043 12 230 12.9 38.6 0.00 0.15 0.15 82 1004.2
20200216084654 12 168 19.3 37.0 0.00 0.15 0.15 82 1004.1
20200216084114 12 244 16.1 37.0 0.00 0.15 0.15 82 1004.3
20200216083544 12 200 20.9 37.0 0.00 0.15 0.15 83 1004.4
20200216083230 12 217 12.9 53.1 0.00 0.15 0.15 83 1004.4
20200216082544 12 148 19.3 53.1 0.00 0.15 0.15 84 1004.5
20200216082053 11 186 19.3 43.5 0.00 0.15 0.15 84 1004.4
20200216081627 11 202 14.5 41.8 0.00 0.15 0.15 85 1004.4
20200216081105 11 219 12.9 41.8 0.00 0.15 0.15 86 1004.4
20200216080555 11 200 12.9 40.2 0.00 0.15 0.15 87 1004.7
20200216080150 11 203 14.5 33.8 0.00 0.15 0.15 87 1004.8
20200216075548 11 190 9.7 40.2 0.00 0.15 0.15 87 1004.9
20200216075054 11 225 17.7 43.5 0.00 0.15 0.15 87 1004.8
20200216074613 11 210 16.1 43.5 0.00 0.15 0.15 87 1005.0
20200216074050 11 184 11.3 38.6 0.00 0.15 0.15 88 1005.0
20200216073545 11 175 16.1 37.0 0.03 0.15 0.15 88 1005.0
20200216073122 11 257 14.5 35.4 0.03 0.15 0.15 88 1004.9
20200216072544 11 238 9.7 35.4 0.03 0.15 0.15 88 1004.8
20200216072045 10 232 14.5 38.6 0.03 0.15 0.15 88 1004.7
20200216071553 10 180 11.3 43.5 0.05 0.15 0.15 88 1004.6
20200216071104 10 220 14.5 43.5 0.05 0.15 0.15 88 1004.8
20200216070544 10 236 12.9 38.6 0.05 0.15 0.15 88 1004.9
20200216070220 10 206 12.9 37.0 0.05 0.15 0.15 88 1005.0
20200216065553 10 197 12.9 37.0 0.08 0.15 0.15 88 1005.0
20200216065045 10 209 12.9 33.8 0.05 0.13 0.13 88 1004.9
20200216064635 10 0 11.3 33.8 0.05 0.13 0.13 87 1005.2
20200216064049 10 174 11.3 29.0 0.08 0.13 0.13 87 1005.2
20200216063543 10 178 11.3 46.7 0.08 0.10 0.10 87 1005.5
20200216063143 10 222 17.7 46.7 0.08 0.10 0.10 87 1005.5
20200216062546 10 147 14.5 33.8 0.08 0.10 0.10 87 1005.5
20200216062050 10 239 9.7 40.2 0.08 0.10 0.10 87 1005.5
20200216061638 10 200 17.7 40.2 0.08 0.08 0.08 87 1005.5
20200216061046 10 180 12.9 37.0 0.08 0.08 0.08 87 1005.5
20200216060548 10 200 14.5 37.0 0.08 0.08 0.08 87 1005.4
20200216060104 10 168 11.3 35.4 0.08 0.08 0.08 86 1005.4
20200216055557 10 161 12.9 35.4 0.08 0.08 0.08 86 1005.5
20200216055046 10 223 12.9 38.6 0.08 0.08 0.08 85 1005.7
20200216054615 10 230 11.3 38.6 0.08 0.08 0.08 84 1005.8
20200216054046 10 190 8.0 35.4 0.05 0.05 0.05 84 1005.8
20200216053545 11 173 14.5 43.5 0.03 0.03 0.03 82 1005.8
20200216053129 11 212 12.9 43.5 0.03 0.03 0.03 81 1005.8
20200216052553 11 159 14.5 43.5 0.00 0.00 0.00 80 1006.0
20200216052114 11 224 9.7 27.4 0.00 0.00 0.00 78 1006.0
20200216051627 11 173 8.0 33.8 0.00 0.00 0.00 77 1005.9
20200216051046 12 205 6.4 40.2 0.00 0.00 0.00 76 1006.0
20200216050544 12 212 14.5 40.2 0.00 0.00 0.00 75 1006.0
20200216050133 12 185 17.7 38.6 0.00 0.00 0.00 74 1005.9
20200216045546 12 210 11.3 40.2 0.00 0.00 0.00 73 1005.8
20200216045043 12 159 16.1 41.8 0.00 0.00 0.00 72 1006.2
20200216044635 12 267 9.7 41.8 0.00 0.00 0.00 71 1006.1
20200216044044 12 180 14.5 38.6 0.00 0.00 0.00 70 1006.2
20200216043545 12 186 16.1 38.6 0.00 0.00 0.00 69 1006.2
20200216043106 12 235 12.9 37.0 0.00 0.00 0.00 69 1006.1
20200216042546 12 246 12.9 32.2 0.00 0.00 0.00 69 1006.2
20200216042045 12 211 9.7 27.4 0.00 0.00 0.00 69 1006.4
20200216041729 12 211 12.9 29.0 0.00 0.00 0.00 69 1006.4
20200216041045 12 218 14.5 38.6 0.00 0.00 0.00 70 1006.4
20200216040549 12 128 17.7 38.6 0.00 0.00 0.00 70 1006.6
20200216040115 12 238 12.9 33.8 0.00 0.00 0.00 70 1006.5
20200216035544 12 0 14.5 29.0 0.00 0.00 0.00 70 1006.7
20200216035051 12 205 9.7 33.8 0.00 0.00 0.00 70 1006.6
20200216034606 12 0 11.3 38.6 0.00 0.00 0.00 70 1006.7
20200216034046 12 175 12.9 38.6 0.00 0.00 0.00 70 1006.6
20200216033546 12 186 11.3 41.8 0.00 0.00 0.00 71 1006.8
20200216033356 12 229 11.3 41.8 0.00 0.00 0.00 71 1006.9
20200216032608 12 180 8.0 33.8 0.00 0.00 0.00 71 1006.9
20200216032103 12 271 6.4 33.8 0.00 0.00 0.00 71 1006.9
20200216031628 12 209 6.4 37.0 0.00 0.00 0.00 71 1007.1
20200216031045 12 221 11.3 37.0 0.00 0.00 0.00 71 1007.2
20200216030547 12 244 11.3 33.8 0.00 0.00 0.00 71 1007.3
20200216030128 12 205 11.3 25.7 0.00 0.00 0.00 72 1007.5
20200216025546 11 240 12.9 35.4 0.00 0.00 0.00 72 1007.5
20200216025110 11 231 9.7 35.4 0.00 0.00 0.00 72 1007.6
20200216024633 11 214 6.4 24.1 0.00 0.00 0.00 72 1007.5
20200216024048 11 186 9.7 25.7 0.00 0.00 0.00 73 1007.6
20200216023554 11 195 9.7 32.2 0.00 0.00 0.00 73 1007.7
20200216023137 11 254 9.7 32.2 0.00 0.00 0.00 74 1007.7
20200216022546 11 0 9.7 27.4 0.00 0.00 0.00 74 1007.8
20200216022048 11 216 12.9 30.6 0.00 0.00 0.00 74 1007.8
20200216021551 11 221 9.7 30.6 0.00 0.00 0.00 74 1007.8
20200216021101 11 226 9.7 33.8 0.00 0.00 0.00 74 1007.7
20200216020544 11 229 11.3 33.8 0.00 0.00 0.00 74 1007.8
20200216020111 11 242 9.7 29.0 0.00 0.00 0.00 74 1007.9
20200216015543 11 220 11.3 29.0 0.00 0.00 0.00 74 1007.8
20200216015050 11 180 8.0 33.8 0.00 0.00 0.00 74 1007.9
20200216014637 11 150 9.7 33.8 0.00 0.00 0.00 73 1008.0